Time;durP1;ratioP1;P1;durP2;ratioP2;P2;SDS_P1;SDS_P2;PMS_P1;PMS_P2;Temp;Humidity;BMP_temperature;BMP_pressure;BME280_temperature;BME280_humidity;BME280_pressure;Samples;Min_cycle;Max_cycle;Signal;HPM_P1;HPM_P2
2021/10/04 00:02:25;;;;;;;7.63;1.20;;;;;;;13.86;71.98;101120.66;4886018;28;20409;-70
2021/10/04 00:04:50;;;;;;;4.35;1.17;;;;;;;13.84;71.87;101120.69;4892436;29;20102;-70
2021/10/04 00:07:17;;;;;;;6.47;1.30;;;;;;;13.76;72.35;101115.41;4887031;29;20107;-69
2021/10/04 00:09:43;;;;;;;4.25;1.45;;;;;;;13.80;72.31;101114.53;4891621;28;20046;-69
2021/10/04 00:12:08;;;;;;;5.85;1.30;;;;;;;13.82;71.54;101114.56;4876237;29;20047;-69
2021/10/04 00:14:34;;;;;;;6.15;1.00;;;;;;;13.90;71.56;101112.84;4886012;29;20408;-69
2021/10/04 00:16:59;;;;;;;5.05;1.35;;;;;;;13.87;71.38;101118.06;4885765;28;20044;-69
2021/10/04 00:19:25;;;;;;;4.32;1.10;;;;;;;13.86;71.21;101123.28;4885170;29;20655;-69
2021/10/04 00:21:50;;;;;;;6.60;1.45;;;;;;;13.78;71.94;101125.91;4888741;29;20107;-69
2021/10/04 00:24:16;;;;;;;5.85;1.27;;;;;;;13.76;71.90;101127.63;4875090;28;22066;-69
2021/10/04 00:26:42;;;;;;;5.10;1.30;;;;;;;13.75;72.17;101125.88;4873897;29;20071;-69
2021/10/04 00:29:08;;;;;;;5.90;1.40;;;;;;;13.74;71.68;101137.22;4886398;28;20044;-68
2021/10/04 00:31:33;;;;;;;5.88;1.23;;;;;;;13.85;71.13;101145.13;4885206;29;20115;-68
2021/10/04 00:34:00;;;;;;;4.50;1.10;;;;;;;13.84;70.97;101144.28;4892023;29;20051;-69
2021/10/04 00:36:25;;;;;;;4.30;1.23;;;;;;;13.82;71.26;101157.38;4878956;28;20048;-70
2021/10/04 00:38:50;;;;;;;3.88;1.15;;;;;;;13.74;71.74;101155.56;4892322;29;20055;-68
2021/10/04 00:41:16;;;;;;;4.55;1.08;;;;;;;13.82;71.30;101154.75;4886688;28;20086;-70
2021/10/04 00:43:41;;;;;;;6.05;1.30;;;;;;;13.79;71.34;101157.34;4886961;29;20123;-68
2021/10/04 00:46:07;;;;;;;4.50;1.20;;;;;;;13.83;71.26;101166.09;4861287;29;20123;-71
2021/10/04 00:48:32;;;;;;;4.13;1.13;;;;;;;13.78;71.85;101178.31;4890055;29;20048;-69
2021/10/04 00:50:57;;;;;;;5.13;1.23;;;;;;;13.76;71.63;101169.56;4884736;29;20579;-68
2021/10/04 00:53:23;;;;;;;6.38;1.33;;;;;;;13.78;72.10;101171.31;4885663;28;20605;-69
2021/10/04 00:55:48;;;;;;;5.20;1.00;;;;;;;13.73;72.20;101178.28;4886826;29;20512;-69
2021/10/04 00:58:14;;;;;;;7.30;1.23;;;;;;;13.80;71.72;101169.56;4884935;28;20043;-70
2021/10/04 01:00:39;;;;;;;6.78;1.30;;;;;;;13.86;71.58;101165.22;4888078;29;20039;-69
2021/10/04 01:03:05;;;;;;;3.45;1.10;;;;;;;13.82;71.95;101162.59;4891441;28;20079;-69
2021/10/04 01:05:30;;;;;;;4.65;1.40;;;;;;;13.83;71.81;101163.50;4888460;29;20044;-69
2021/10/04 01:07:56;;;;;;;5.80;1.20;;;;;;;13.87;71.68;101174.84;4886183;29;20150;-68
2021/10/04 01:10:21;;;;;;;5.20;1.20;;;;;;;13.89;71.70;101179.25;4878703;28;20075;-68
2021/10/04 01:12:49;;;;;;;6.50;1.30;;;;;;;13.97;71.30;101188.00;4890303;29;20477;-69
2021/10/04 01:15:16;;;;;;;4.15;1.10;;;;;;;13.83;71.73;101189.69;4885110;28;20105;-69
2021/10/04 01:17:42;;;;;;;8.70;1.42;;;;;;;13.94;71.48;101192.34;4884148;29;22079;-68
2021/10/04 01:20:12;;;;;;;4.22;1.08;;;;;;;13.98;71.17;101196.72;4888954;29;20476;-69
2021/10/04 01:22:37;;;;;;;5.13;1.30;;;;;;;13.87;71.54;101198.44;4887340;28;20513;-68
2021/10/04 01:25:04;;;;;;;4.72;1.20;;;;;;;13.91;71.38;101195.81;4892423;29;20036;-68
2021/10/04 01:27:29;;;;;;;5.28;1.27;;;;;;;13.84;71.68;101209.78;4887658;28;20070;-70
2021/10/04 01:29:55;;;;;;;5.60;1.25;;;;;;;13.87;71.45;101203.69;4874589;29;20926;-68
2021/10/04 01:32:20;;;;;;;7.13;1.30;;;;;;;13.80;71.90;101200.16;4877918;28;20926;-69
2021/10/04 01:34:46;;;;;;;5.88;1.20;;;;;;;13.85;71.47;101205.41;4891389;29;20035;-68
2021/10/04 01:37:12;;;;;;;6.68;1.38;;;;;;;13.85;71.45;101213.25;4896767;29;20048;-68
2021/10/04 01:39:37;;;;;;;7.75;1.17;;;;;;;13.82;71.72;101212.41;4890830;28;20052;-68
2021/10/04 01:42:02;;;;;;;9.98;1.35;;;;;;;13.74;71.66;101215.84;4877611;29;20039;-69
2021/10/04 01:44:28;;;;;;;5.45;1.30;;;;;;;13.62;72.15;101216.63;4891429;28;20525;-68
2021/10/04 01:46:53;;;;;;;6.13;1.40;;;;;;;13.63;72.43;101221.00;4871352;29;20515;-68
2021/10/04 01:49:19;;;;;;;4.80;1.13;;;;;;;13.61;72.54;101222.72;4894794;28;20150;-69
2021/10/04 01:51:44;;;;;;;4.43;1.20;;;;;;;13.65;72.37;101219.28;4882545;29;20043;-68
2021/10/04 01:54:09;;;;;;;4.72;1.27;;;;;;;13.62;72.37;101219.25;4883058;29;20470;-69
2021/10/04 01:56:35;;;;;;;6.38;1.30;;;;;;;13.60;72.91;101217.50;4889081;28;20071;-68
2021/10/04 01:59:00;;;;;;;5.28;1.23;;;;;;;13.66;72.24;101209.69;4887867;29;20948;-68
2021/10/04 02:01:25;;;;;;;4.05;1.20;;;;;;;13.68;72.17;101206.19;4895663;28;20106;-69
2021/10/04 02:03:51;;;;;;;4.80;1.23;;;;;;;13.68;72.20;101208.81;4889803;29;20622;-68
2021/10/04 02:06:17;;;;;;;4.88;1.10;;;;;;;13.73;71.90;101206.22;4869763;29;20610;-69
2021/10/04 02:08:44;;;;;;;4.32;1.20;;;;;;;13.72;71.89;101204.50;4884955;28;20055;-70
2021/10/04 02:11:09;;;;;;;7.22;1.08;;;;;;;13.71;71.71;101202.72;4891938;29;20043;-67
2021/10/04 02:13:34;;;;;;;6.72;1.23;;;;;;;13.64;72.17;101198.31;4891093;28;20518;-68
2021/10/04 02:16:00;;;;;;;6.20;1.38;;;;;;;13.57;72.22;101200.03;4883579;29;20051;-68
2021/10/04 02:18:25;;;;;;;4.72;1.20;;;;;;;13.49;73.38;101201.69;4888173;28;20533;-69
2021/10/04 02:20:50;;;;;;;7.88;1.30;;;;;;;13.53;72.96;101202.63;4887932;29;20036;-68
2021/10/04 02:23:16;;;;;;;5.25;1.58;;;;;;;13.54;73.06;101201.75;4896591;29;20502;-68
2021/10/04 02:25:44;;;;;;;5.88;1.23;;;;;;;13.65;72.54;101193.09;4887184;28;20048;-68
2021/10/04 02:28:10;;;;;;;6.57;1.23;;;;;;;13.57;72.99;101194.78;4868184;29;20060;-68
2021/10/04 02:30:36;;;;;;;3.97;1.10;;;;;;;13.59;72.88;101189.56;4896245;28;20058;-68
2021/10/04 02:33:03;;;;;;;3.20;1.27;;;;;;;13.59;72.79;101179.97;4885887;29;20048;-69
2021/10/04 02:35:29;;;;;;;5.28;1.20;;;;;;;13.57;73.02;101183.41;4891539;28;20083;-68
2021/10/04 02:37:54;;;;;;;3.58;1.10;;;;;;;13.59;72.92;101184.31;4886750;29;20074;-68
2021/10/04 02:40:20;;;;;;;5.03;1.35;;;;;;;13.52;73.09;101177.28;4882646;29;20525;-68
2021/10/04 02:42:48;;;;;;;4.10;1.30;;;;;;;13.58;72.79;101179.94;4891390;28;20047;-68
2021/10/04 02:45:16;;;;;;;7.13;1.27;;;;;;;13.46;73.10;101172.00;4871030;29;20024;-69
2021/10/04 02:47:43;;;;;;;5.70;1.30;;;;;;;13.43;73.19;101177.22;4888962;29;20047;-68
2021/10/04 02:50:10;;;;;;;6.68;1.60;;;;;;;13.40;73.44;101165.00;4877079;29;20052;-69
2021/10/04 02:52:35;;;;;;;4.15;1.30;;;;;;;13.37;73.52;101160.59;4892569;28;20462;-68
2021/10/04 02:55:01;;;;;;;5.13;1.20;;;;;;;13.37;73.08;101155.34;4889890;29;20052;-68
2021/10/04 02:57:27;;;;;;;5.65;1.40;;;;;;;13.26;73.87;101177.97;4896667;29;20113;-68
2021/10/04 02:59:53;;;;;;;4.55;1.30;;;;;;;13.28;73.65;101180.63;4874466;29;20067;-68
2021/10/04 03:02:18;;;;;;;6.63;1.35;;;;;;;13.24;74.05;101194.53;4879295;29;20517;-69
2021/10/04 03:04:43;;;;;;;5.22;1.30;;;;;;;13.27;73.79;101191.94;4888406;28;20186;-68
2021/10/04 03:07:09;;;;;;;6.45;1.33;;;;;;;13.25;74.15;101186.69;4887519;29;20119;-68
2021/10/04 03:09:35;;;;;;;5.15;1.20;;;;;;;13.32;73.76;101185.88;4892541;29;20070;-67
2021/10/04 03:12:00;;;;;;;5.75;1.33;;;;;;;13.29;73.78;101190.22;4877144;28;20040;-68
2021/10/04 03:14:26;;;;;;;4.25;1.10;;;;;;;13.23;73.83;101201.53;4889707;29;20361;-68
2021/10/04 03:16:52;;;;;;;6.10;1.23;;;;;;;13.25;73.41;101206.75;4891499;28;20668;-68
2021/10/04 03:19:18;;;;;;;5.90;1.30;;;;;;;13.26;73.88;101205.91;4892413;29;20060;-68
2021/10/04 03:21:43;;;;;;;5.70;1.38;;;;;;;13.26;73.73;101205.91;4888790;29;20050;-69
2021/10/04 03:24:10;;;;;;;2.85;1.13;;;;;;;13.26;73.73;101203.28;4860426;28;20351;-69
2021/10/04 03:26:35;;;;;;;4.82;1.30;;;;;;;13.19;74.08;101202.34;4872849;29;20040;-67
2021/10/04 03:29:01;;;;;;;7.13;1.40;;;;;;;13.18;74.11;101205.84;4886758;29;20055;-68
2021/10/04 03:31:26;;;;;;;7.40;1.50;;;;;;;13.17;74.04;101211.09;4875792;29;20296;-68
2021/10/04 03:33:51;;;;;;;6.63;1.50;;;;;;;13.16;74.00;101204.09;4886138;28;20070;-67
2021/10/04 03:36:17;;;;;;;6.82;1.60;;;;;;;13.11;74.46;101200.53;4880125;29;20255;-69
2021/10/04 03:38:42;;;;;;;7.18;1.27;;;;;;;13.17;73.99;101224.16;4895343;28;20047;-69
2021/10/04 03:41:07;;;;;;;5.47;1.33;;;;;;;13.04;74.86;101224.88;4879141;29;20146;-68
2021/10/04 03:43:33;;;;;;;6.40;1.42;;;;;;;13.06;74.48;101223.13;4891282;29;20495;-68
2021/10/04 03:45:59;;;;;;;4.13;1.30;;;;;;;13.06;74.58;101217.91;4883197;28;20054;-69
2021/10/04 03:48:24;;;;;;;6.05;1.40;;;;;;;13.12;74.14;101231.03;4880629;29;20052;-69
2021/10/04 03:50:50;;;;;;;4.30;1.60;;;;;;;13.06;74.56;101246.69;4887477;28;20047;-70
2021/10/04 03:53:15;;;;;;;5.10;1.33;;;;;;;13.02;74.57;101238.84;4891667;29;20048;-68
2021/10/04 03:55:40;;;;;;;5.03;1.30;;;;;;;13.01;74.31;101244.94;4875565;29;20079;-68
2021/10/04 03:58:06;;;;;;;3.45;1.30;;;;;;;13.00;74.23;101250.13;4879518;28;20752;-68
2021/10/04 04:00:31;;;;;;;6.75;1.40;;;;;;;12.97;74.48;101253.63;4874794;29;20059;-69
2021/10/04 04:02:57;;;;;;;5.85;1.60;;;;;;;12.92;74.50;101239.63;4883350;28;20324;-69
2021/10/04 04:05:22;;;;;;;7.32;1.30;;;;;;;12.80;75.03;101243.84;4869892;29;20418;-69
2021/10/04 04:07:48;;;;;;;7.43;1.50;;;;;;;12.68;75.65;101242.00;4888490;28;20135;-69
2021/10/04 04:10:16;;;;;;;5.45;1.75;;;;;;;12.69;75.62;101240.22;4873065;29;20043;-69
2021/10/04 04:12:41;;;;;;;5.22;1.60;;;;;;;12.72;75.46;101235.91;4876536;29;20086;-68
2021/10/04 04:15:07;;;;;;;4.00;1.42;;;;;;;12.74;75.30;101239.44;4885737;28;20476;-68
2021/10/04 04:17:33;;;;;;;7.28;1.80;;;;;;;12.65;75.76;101241.94;4886502;29;20054;-68
2021/10/04 04:19:59;;;;;;;6.55;1.90;;;;;;;12.65;75.42;101251.53;4889469;28;20043;-68
2021/10/04 04:22:24;;;;;;;8.55;1.60;;;;;;;12.69;75.29;101243.72;4865898;29;20706;-68
2021/10/04 04:24:50;;;;;;;7.88;1.55;;;;;;;12.65;75.27;101255.03;4889098;28;20039;-70
2021/10/04 04:27:16;;;;;;;6.38;1.85;;;;;;;12.60;75.46;101248.88;4892599;29;20043;-68
2021/10/04 04:29:41;;;;;;;9.38;1.80;;;;;;;12.59;75.41;101254.97;4884760;29;20048;-68
2021/10/04 04:32:09;;;;;;;4.22;1.40;;;;;;;12.60;75.65;101264.56;4873150;28;20039;-68
2021/10/04 04:34:35;;;;;;;6.95;1.63;;;;;;;12.59;75.42;101273.25;4886348;29;20047;-69
2021/10/04 04:37:00;;;;;;;5.80;1.77;;;;;;;12.53;75.51;101268.84;4887877;28;20070;-69
2021/10/04 04:39:27;;;;;;;7.53;1.67;;;;;;;12.43;75.44;101267.00;4879948;29;20437;-68
2021/10/04 04:41:53;;;;;;;3.75;1.65;;;;;;;12.37;75.43;101274.75;4896396;29;20042;-69
2021/10/04 04:44:18;;;;;;;4.60;1.58;;;;;;;12.33;75.64;101269.44;4871044;28;20417;-68
2021/10/04 04:46:43;;;;;;;5.85;1.67;;;;;;;12.29;76.06;101280.75;4882670;29;20048;-68
2021/10/04 04:49:10;;;;;;;5.60;1.60;;;;;;;12.28;76.15;101277.25;4887401;28;20256;-68
2021/10/04 04:51:35;;;;;;;7.78;1.60;;;;;;;12.19;76.62;101282.38;4888212;29;20515;-69
2021/10/04 04:54:01;;;;;;;7.38;1.80;;;;;;;12.13;76.59;101287.50;4884393;28;20032;-69
2021/10/04 04:56:27;;;;;;;8.73;2.05;;;;;;;12.12;76.54;101290.97;4887256;29;20573;-68
2021/10/04 04:58:52;;;;;;;4.43;1.70;;;;;;;12.10;76.15;101280.50;4894217;29;20131;-68
2021/10/04 05:01:18;;;;;;;5.72;1.70;;;;;;;12.13;76.26;101290.13;4890575;28;20048;-69
2021/10/04 05:03:43;;;;;;;6.78;2.00;;;;;;;12.12;76.22;101286.63;4891828;29;20130;-69
2021/10/04 05:06:09;;;;;;;4.20;1.80;;;;;;;12.09;76.71;101296.16;4879730;29;20465;-70
2021/10/04 05:08:34;;;;;;;5.97;2.10;;;;;;;12.11;76.28;101295.31;4887558;29;20064;-68
2021/10/04 05:10:59;;;;;;;3.80;1.80;;;;;;;12.10;76.18;101296.19;4892040;28;20055;-70
2021/10/04 05:13:25;;;;;;;4.20;1.70;;;;;;;12.04;76.44;101300.44;4877025;29;20036;-68
2021/10/04 05:15:50;;;;;;;4.70;1.90;;;;;;;12.07;76.06;101300.50;4894248;29;20044;-68
2021/10/04 05:18:15;;;;;;;6.03;2.10;;;;;;;12.04;76.65;101311.78;4883899;28;20600;-68
2021/10/04 05:20:41;;;;;;;5.35;1.75;;;;;;;12.07;76.46;101319.66;4888875;29;20533;-68
2021/10/04 05:23:06;;;;;;;3.70;1.50;;;;;;;12.07;76.24;101319.66;4895323;28;20158;-68
2021/10/04 05:25:32;;;;;;;7.78;1.90;;;;;;;11.98;76.59;101321.25;4887698;29;20071;-69
2021/10/04 05:27:59;;;;;;;5.05;2.00;;;;;;;12.03;76.57;101323.06;4897379;29;20067;-69
2021/10/04 05:30:24;;;;;;;8.00;2.30;;;;;;;11.99;76.99;101326.50;4881480;28;20497;-67
2021/10/04 05:32:49;;;;;;;7.65;2.30;;;;;;;11.98;77.19;101329.97;4895162;29;20032;-68
2021/10/04 05:35:15;;;;;;;4.45;2.10;;;;;;;12.01;77.21;101322.19;4873378;29;20047;-69
2021/10/04 05:37:41;;;;;;;5.15;2.22;;;;;;;12.01;77.47;101318.69;4891846;29;20113;-69
2021/10/04 05:40:07;;;;;;;7.57;2.28;;;;;;;11.95;77.64;101324.72;4885797;29;21387;-69
2021/10/04 05:42:32;;;;;;;5.82;2.22;;;;;;;12.07;77.40;101329.25;4886291;29;20911;-68
2021/10/04 05:44:59;;;;;;;7.25;2.13;;;;;;;11.99;77.72;101338.69;4871815;29;20051;-70
2021/10/04 05:47:25;;;;;;;5.80;2.17;;;;;;;11.99;77.46;101338.69;4889380;28;20047;-69
2021/10/04 05:49:52;;;;;;;7.03;2.13;;;;;;;12.03;77.92;101343.97;4886827;29;20102;-68
2021/10/04 05:52:18;;;;;;;6.60;2.13;;;;;;;12.03;77.82;101343.97;4882148;28;20431;-68
2021/10/04 05:54:43;;;;;;;5.90;2.30;;;;;;;11.98;78.00;101352.59;4890291;29;20568;-68
2021/10/04 05:57:08;;;;;;;5.35;2.42;;;;;;;11.99;78.23;101350.03;4898934;28;20050;-68
2021/10/04 05:59:34;;;;;;;6.70;2.50;;;;;;;12.01;78.37;101363.13;4866596;29;20786;-68
2021/10/04 06:01:59;;;;;;;6.68;2.50;;;;;;;12.08;77.87;101351.88;4876594;29;20043;-69
2021/10/04 06:04:24;;;;;;;12.40;3.10;;;;;;;12.14;77.93;101358.06;4884896;29;20540;-69
2021/10/04 06:06:50;;;;;;;9.88;2.97;;;;;;;12.10;78.13;101358.91;4893752;29;20040;-68
2021/10/04 06:09:15;;;;;;;7.63;2.80;;;;;;;12.07;77.83;101353.66;4887659;28;20420;-68
2021/10/04 06:11:40;;;;;;;8.52;2.90;;;;;;;12.11;78.08;101357.16;4890129;29;20473;-68
2021/10/04 06:14:06;;;;;;;9.25;3.25;;;;;;;12.16;77.65;101360.72;4881517;28;20059;-68
2021/10/04 06:16:32;;;;;;;8.57;2.70;;;;;;;12.09;77.95;101362.38;4890513;28;20146;-69
2021/10/04 06:18:57;;;;;;;7.13;3.00;;;;;;;12.15;77.43;101369.41;4885466;29;20108;-69
2021/10/04 06:21:23;;;;;;;9.40;3.15;;;;;;;12.16;77.59;101371.19;4880605;29;20139;-69
2021/10/04 06:23:48;;;;;;;10.25;3.10;;;;;;;12.17;77.71;101379.06;4891485;29;20071;-68
2021/10/04 06:26:13;;;;;;;7.88;3.10;;;;;;;12.16;77.37;101381.63;4875387;28;20757;-68
2021/10/04 06:28:39;;;;;;;9.32;2.88;;;;;;;12.14;77.20;101386.81;4872362;29;20579;-69
2021/10/04 06:31:04;;;;;;;7.07;2.88;;;;;;;12.15;76.89;101388.59;4879423;29;20059;-68
2021/10/04 06:33:30;;;;;;;10.65;3.00;;;;;;;12.10;77.48;101390.25;4887134;28;20043;-69
2021/10/04 06:35:55;;;;;;;9.10;2.90;;;;;;;12.10;78.06;101384.16;4890033;29;20044;-70
2021/10/04 06:38:20;;;;;;;7.28;2.83;;;;;;;12.10;77.36;101392.00;4881665;28;20759;-69
2021/10/04 06:40:46;;;;;;;6.38;3.00;;;;;;;12.18;77.77;101390.38;4885081;29;20687;-68
2021/10/04 06:43:11;;;;;;;7.88;3.20;;;;;;;12.19;77.27;101390.41;4889707;29;20436;-68
2021/10/04 06:45:37;;;;;;;11.13;3.17;;;;;;;12.33;77.56;101390.59;4883896;29;20047;-69
2021/10/04 06:48:02;;;;;;;7.97;3.30;;;;;;;12.75;77.24;101389.41;4882668;29;20729;-68
2021/10/04 06:50:28;;;;;;;7.20;2.50;;;;;;;13.12;76.07;101385.50;4886592;29;20090;-69
2021/10/04 06:52:53;;;;;;;6.15;2.85;;;;;;;13.42;74.61;101385.84;4887186;29;20047;-68
2021/10/04 06:55:19;;;;;;;8.60;2.78;;;;;;;13.55;72.81;101390.34;4875676;28;20083;-69
2021/10/04 06:57:44;;;;;;;6.25;2.50;;;;;;;13.74;72.54;101384.41;4880493;29;20130;-69
2021/10/04 07:00:17;;;;;;;8.98;2.97;;;;;;;13.81;71.28;101390.59;4875324;29;20095;-71
2021/10/04 07:02:43;;;;;;;6.63;2.60;;;;;;;14.14;71.39;101382.13;4888484;28;20040;-69
2021/10/04 07:05:09;;;;;;;10.20;3.00;;;;;;;14.18;69.49;101387.38;4886202;29;20062;-69
2021/10/04 07:07:35;;;;;;;7.53;2.65;;;;;;;14.11;70.05;101395.19;4872440;29;20051;-68
2021/10/04 07:10:00;;;;;;;4.45;2.50;;;;;;;14.13;70.23;101394.34;4886915;29;20032;-68
2021/10/04 07:12:26;;;;;;;6.75;2.80;;;;;;;14.08;70.44;101397.81;4881768;28;20047;-69
2021/10/04 07:14:52;;;;;;;6.20;2.53;;;;;;;14.15;70.15;101410.06;4886016;29;20044;-68
2021/10/04 07:17:18;;;;;;;9.05;2.70;;;;;;;14.09;70.53;101405.66;4890705;29;21592;-67
2021/10/04 07:19:43;;;;;;;9.15;2.78;;;;;;;14.05;70.68;101405.63;4884960;28;20094;-68
2021/10/04 07:22:09;;;;;;;5.20;2.60;;;;;;;14.11;70.48;101397.81;4877023;29;20769;-68
2021/10/04 07:24:34;;;;;;;5.38;2.60;;;;;;;14.09;70.58;101407.41;4883916;28;20410;-67
2021/10/04 07:27:00;;;;;;;6.40;2.53;;;;;;;14.14;70.24;101408.34;4890690;29;20048;-68
2021/10/04 07:29:26;;;;;;;6.80;2.50;;;;;;;14.20;69.82;101409.25;4888714;29;20043;-69
2021/10/04 07:31:51;;;;;;;7.85;2.65;;;;;;;14.26;69.84;101412.78;4890664;29;20058;-69
2021/10/04 07:34:16;;;;;;;7.57;2.40;;;;;;;14.20;69.77;101406.63;4871416;29;20738;-68
2021/10/04 07:36:42;;;;;;;7.80;2.53;;;;;;;14.25;70.18;101419.78;4888693;28;20163;-68
2021/10/04 07:39:08;;;;;;;6.72;2.47;;;;;;;14.33;69.46;101418.09;4885778;29;20065;-67
2021/10/04 07:41:34;;;;;;;6.53;2.30;;;;;;;14.02;71.00;101419.63;4890787;28;20069;-69
2021/10/04 07:44:00;;;;;;;7.00;2.60;;;;;;;14.28;69.29;101424.16;4882274;29;20131;-67
2021/10/04 07:46:25;;;;;;;8.52;2.35;;;;;;;14.42;69.07;101418.16;4887645;29;20074;-68
2021/10/04 07:48:51;;;;;;;11.60;2.30;;;;;;;14.57;68.16;101423.53;4883951;28;20055;-69
2021/10/04 07:51:18;;;;;;;7.18;2.30;;;;;;;14.48;68.34;101407.72;4887799;29;20104;-69
2021/10/04 07:53:43;;;;;;;9.20;2.30;;;;;;;14.64;68.41;101429.66;4864910;29;20051;-70
2021/10/04 07:56:09;;;;;;;5.90;2.15;;;;;;;14.72;68.48;101417.47;4875088;29;20650;-70
2021/10/04 07:58:34;;;;;;;5.63;2.15;;;;;;;14.74;68.15;101420.97;4891436;29;20044;-69
2021/10/04 08:01:00;;;;;;;9.50;2.20;;;;;;;14.94;66.95;101421.94;4882346;29;20152;-70
2021/10/04 08:03:25;;;;;;;7.90;2.10;;;;;;;15.03;67.29;101421.97;4890884;29;20099;-68
2021/10/04 08:05:51;;;;;;;6.30;2.28;;;;;;;15.08;66.02;101423.75;4887127;28;20131;-69
2021/10/04 08:08:16;;;;;;;6.28;2.00;;;;;;;15.23;66.69;101424.69;4877649;28;20807;-68
2021/10/04 08:10:42;;;;;;;7.80;2.20;;;;;;;15.35;65.95;101413.34;4885666;28;20074;-69
2021/10/04 08:13:07;;;;;;;7.72;2.03;;;;;;;15.50;65.10;101420.34;4892476;28;20051;-69
2021/10/04 08:15:33;;;;;;;4.35;2.08;;;;;;;15.50;65.09;101421.22;4890969;29;20082;-68
2021/10/04 08:17:58;;;;;;;10.07;2.30;;;;;;;15.68;65.12;101420.41;4890920;29;20050;-68
2021/10/04 08:20:24;;;;;;;4.50;2.00;;;;;;;15.56;65.53;101421.28;4883032;29;20127;-68
2021/10/04 08:22:51;;;;;;;7.13;2.00;;;;;;;15.62;65.08;101421.28;4889345;28;20047;-68
2021/10/04 08:25:18;;;;;;;5.05;2.13;;;;;;;15.72;66.10;101415.19;4892102;29;20040;-68
2021/10/04 08:27:43;;;;;;;7.07;2.28;;;;;;;15.78;64.77;101425.72;4894040;28;20043;-69
2021/10/04 08:30:09;;;;;;;6.78;2.10;;;;;;;16.13;63.91;101424.81;4883015;28;20516;-68
2021/10/04 08:32:35;;;;;;;6.75;2.20;;;;;;;16.02;64.67;101432.72;4897287;29;20052;-68
2021/10/04 08:35:03;;;;;;;7.50;2.10;;;;;;;16.01;64.06;101428.34;4890221;28;20040;-67
2021/10/04 08:37:32;;;;;;;6.55;2.30;;;;;;;16.14;64.20;101414.31;4889541;28;20032;-69
2021/10/04 08:40:00;;;;;;;9.85;2.40;;;;;;;16.02;64.59;101418.69;4883169;28;20051;-69
2021/10/04 08:42:26;;;;;;;7.72;2.30;;;;;;;16.23;63.76;101406.38;4866564;29;20554;-68
2021/10/04 08:44:51;;;;;;;7.55;2.45;;;;;;;16.38;63.79;101404.63;4890366;28;20633;-70
2021/10/04 08:47:17;;;;;;;15.20;2.47;;;;;;;16.33;62.26;101406.41;4890500;29;20050;-68
2021/10/04 08:49:43;;;;;;;7.00;2.40;;;;;;;16.51;62.33;101412.50;4889068;29;20043;-68
2021/10/04 08:52:08;;;;;;;9.98;2.88;;;;;;;16.63;61.62;101416.88;4860492;29;20138;-68
2021/10/04 08:54:34;;;;;;;8.05;2.60;;;;;;;16.77;61.73;101424.75;4873502;29;20070;-69
2021/10/04 08:57:00;;;;;;;9.88;3.05;;;;;;;16.47;64.11;101425.63;4890888;29;20079;-72
2021/10/04 08:59:26;;;;;;;9.90;2.70;;;;;;;16.69;63.27;101419.50;4888765;29;20048;-69
2021/10/04 09:02:21;;;;;;;8.02;2.80;;;;;;;16.59;62.91;101418.63;4892800;29;22119;-68
2021/10/04 09:05:16;;;;;;;6.65;2.70;;;;;;;16.80;61.71;101430.88;4874148;29;20112;-68
2021/10/04 09:08:12;;;;;;;6.75;2.70;;;;;;;16.81;62.65;101426.47;4866795;29;20497;-74
2021/10/04 09:10:41;;;;;;;10.13;2.80;;;;;;;16.75;61.57;101423.88;4868114;29;20047;-69
2021/10/04 09:13:13;;;;;;;9.93;2.70;;;;;;;16.75;60.99;101430.00;4890111;29;20039;-69
2021/10/04 09:15:42;;;;;;;8.27;2.40;;;;;;;16.89;62.51;101430.84;4889165;29;20111;-69
2021/10/04 09:18:15;;;;;;;7.32;2.78;;;;;;;17.09;60.48;101435.13;4860293;29;20044;-68
2021/10/04 09:21:06;;;;;;;11.50;2.70;;;;;;;17.20;60.56;101439.47;4891720;29;20064;-68
2021/10/04 09:23:32;;;;;;;9.20;2.65;;;;;;;16.98;62.03;101440.47;4872088;29;21837;-69
2021/10/04 09:26:00;;;;;;;12.55;2.70;;;;;;;17.06;61.40;101445.72;4869799;29;20679;-69
2021/10/04 09:28:33;;;;;;;7.60;2.55;;;;;;;17.16;60.08;101444.78;4874464;29;20047;-69
2021/10/04 09:31:18;;;;;;;10.57;2.75;;;;;;;17.22;60.57;101447.38;4876448;29;20497;-68
2021/10/04 09:34:02;;;;;;;;;;;;;;;17.45;60.39;101458.66;4891780;29;20040;-68
2021/10/04 09:36:52;;;;;;;10.45;2.70;;;;;;;17.33;60.39;101441.16;4886536;28;19930;-69
2021/10/04 09:39:31;;;;;;;9.38;2.92;;;;;;;17.47;59.89;101453.41;4864912;29;20048;-69
2021/10/04 09:42:05;;;;;;;9.00;2.80;;;;;;;17.44;60.56;101441.97;4893072;29;20103;-69
2021/10/04 09:44:43;;;;;;;11.38;2.65;;;;;;;17.61;60.71;101448.97;4888335;29;20067;-69
2021/10/04 09:47:15;;;;;;;9.85;2.90;;;;;;;17.62;60.75;101450.72;4897835;29;20176;-68
2021/10/04 09:49:56;;;;;;;13.75;2.83;;;;;;;17.36;60.23;101442.94;4884921;28;20044;-69
2021/10/04 09:52:33;;;;;;;7.97;2.65;;;;;;;17.30;59.30;101443.84;4867276;29;20039;-68
2021/10/04 09:54:59;;;;;;;10.23;2.72;;;;;;;17.26;61.47;101442.06;4867383;29;20494;-69
2021/10/04 09:57:24;;;;;;;8.07;2.58;;;;;;;17.53;60.51;101453.38;4871491;29;20045;-68
2021/10/04 09:59:50;;;;;;;10.23;2.30;;;;;;;17.78;59.00;101453.25;4892800;29;20071;-68
2021/10/04 10:02:18;;;;;;;8.48;2.38;;;;;;;17.83;59.18;101454.06;4877382;29;20040;-68
2021/10/04 10:04:46;;;;;;;11.85;2.75;;;;;;;17.91;59.66;101456.66;4889293;29;20198;-68
2021/10/04 10:07:11;;;;;;;11.07;2.40;;;;;;;17.79;58.66;101457.63;4869646;28;20130;-68
2021/10/04 10:09:41;;;;;;;15.30;2.30;;;;;;;17.69;58.22;101471.75;4887929;29;20150;-68
2021/10/04 10:12:08;;;;;;;13.85;2.45;;;;;;;17.63;58.83;101463.00;4877470;28;20040;-68
2021/10/04 10:14:39;;;;;;;9.93;2.20;;;;;;;17.36;60.71;101461.38;4881775;29;20070;-68
2021/10/04 10:17:06;;;;;;;7.90;2.15;;;;;;;17.17;60.08;101454.44;4883979;28;20056;-69
2021/10/04 10:19:36;;;;;;;10.43;2.10;;;;;;;17.30;59.54;101458.78;4864420;29;20624;-70
2021/10/04 10:22:16;;;;;;;12.05;2.38;;;;;;;17.37;60.06;101455.22;4880446;29;20044;-68
2021/10/04 10:24:43;;;;;;;7.07;1.98;;;;;;;17.35;60.60;101451.72;4888116;28;20086;-69
2021/10/04 10:27:09;;;;;;;11.90;2.60;;;;;;;17.50;59.38;101463.94;4871598;29;20074;-68
2021/10/04 10:29:35;;;;;;;7.47;2.00;;;;;;;17.20;61.96;101459.72;4865353;29;20134;-68
2021/10/04 10:32:00;;;;;;;8.90;2.00;;;;;;;17.45;59.34;101471.84;4879614;29;20044;-67
2021/10/04 10:34:29;;;;;;;10.80;1.70;;;;;;;17.31;59.68;101463.16;4878048;28;21692;-69
2021/10/04 10:36:57;;;;;;;7.82;1.83;;;;;;;17.15;61.30;101456.19;4882633;29;20950;-69
2021/10/04 10:39:33;;;;;;;10.45;2.10;;;;;;;17.57;60.24;101441.91;4888747;29;20055;-68
2021/10/04 10:42:10;;;;;;;7.90;1.90;;;;;;;17.78;58.93;101445.31;4878187;28;20051;-69
2021/10/04 10:44:56;;;;;;;9.90;2.00;;;;;;;17.84;60.06;101447.03;4884746;29;20062;-69
2021/10/04 10:47:33;;;;;;;8.68;2.00;;;;;;;17.82;59.24;101440.88;4883957;28;20043;-68
2021/10/04 10:50:00;;;;;;;13.13;2.40;;;;;;;17.99;59.93;101448.69;4885012;29;20425;-68
2021/10/04 10:52:36;;;;;;;12.35;2.20;;;;;;;18.07;59.82;101444.22;4875126;28;20085;-68
2021/10/04 10:55:22;;;;;;;11.27;2.03;;;;;;;18.10;59.13;101449.47;4865750;29;21163;-69
2021/10/04 10:57:59;;;;;;;14.35;2.10;;;;;;;17.88;59.32;101439.97;4893814;29;20043;-68
2021/10/04 11:00:40;;;;;;;9.85;2.10;;;;;;;17.84;59.88;101441.75;4861499;28;20561;-68
2021/10/04 11:03:31;;;;;;;10.73;2.00;;;;;;;17.84;59.95;101431.22;4882018;29;20513;-68
2021/10/04 11:06:03;;;;;;;12.45;2.28;;;;;;;17.74;59.54;101450.63;4877938;28;20040;-69
2021/10/04 11:08:29;;;;;;;11.07;1.88;;;;;;;17.86;59.06;101445.28;4882425;29;21058;-69
2021/10/04 11:10:57;;;;;;;11.68;2.10;;;;;;;17.96;59.72;101451.34;4885134;29;20036;-69
2021/10/04 11:13:41;;;;;;;6.38;1.77;;;;;;;18.08;57.81;101459.16;4885261;29;20040;-68
2021/10/04 11:16:09;;;;;;;11.20;1.75;;;;;;;18.22;58.39;101446.75;4879982;28;20062;-68
2021/10/04 11:18:45;;;;;;;8.93;2.10;;;;;;;18.28;59.45;101446.69;4883201;29;20043;-68
2021/10/04 11:21:12;;;;;;;9.93;2.08;;;;;;;18.55;57.61;101441.16;4874589;29;20146;-69
2021/10/04 11:23:43;;;;;;;13.07;1.80;;;;;;;18.29;58.09;101442.28;4877203;29;20580;-67
2021/10/04 11:26:12;;;;;;;12.02;1.90;;;;;;;18.18;59.38;101434.44;4845437;29;20044;-69